KFTK/FTK METAR and TAF weather

Enter ICAO airport designator
Station Type Date Time Source
KFTK METAR 2021/09/19 13:56 UTC NOAA

KFTK 191356Z AUTO 05006KT 10SM CLR 22/22 A3012 RMK AO2 SLP197 T02200218


Station Type Date Time Source
KFTK Decoded METAR 2021/09/19 13:56 UTC NOAA

Fort Knox, KY, United States (KFTK) 37-54N 085-58W 230M
Sep 19, 2021 - 09:56 AM EDT / 2021.09.19 1356 UTC
Wind: from the NE (050 degrees) at 7 MPH (6 KT):0
Visibility: 10 mile(s):0
Sky conditions: clear
Temperature: 71.6 F (22.0 C)
Dew Point: 71.2 F (21.8 C)
Relative Humidity: 98%
Pressure (altimeter): 30.12 in. Hg (1019 hPa)
ob: KFTK 191356Z AUTO 05006KT 10SM CLR 22/22 A3012 RMK AO2 SLP197 T02200218
cycle: 14

Station Type Date Time Source
KFTK TAF 2021/09/17 19:04 UTC NOAA

TAF KFTK 171900Z 1719/1901 12006KT 9999 SCT025 BKN100 QNH3010INS
BECMG 1800/1801 VRB06KT 8000 BR BKN025 QNH3008INS
BECMG 1801/1802 VRB06KT 4800 BR FEW025 QNH3010INS
BECMG 1812/1813 VRB06KT 8000 BR FEW010 QNH3011INS
BECMG 1815/1867 VRB06KT 9999 NSW FEW035 QNH3008INS TX28/1720Z TN20/1808Z LAST NO
AMDS AFT 1803 NEXT 2011

Example: see airport list